Terminal Aerodrome Forecast
Issued by NWS Sioux Falls, SD

Home | Current Version | Previous Version | Graphics & Text | Print | Product List | Glossary On
Versions: 1 2 3 4 5 6 7 8 9 10 11 12 13 14
000
FTUS43 KFSD 261120
TAFSUX
TAF
KSUX 261120Z 2612/2712 21006KT P6SM BKN250
     FM261400 29010G15KT P6SM BKN200
     FM261600 34015G25KT P6SM BKN150
     FM261800 35020G30KT P6SM SKC
     FM270100 35010KT P6SM SKC
     FM270300 30006KT P6SM SKC=

USA.gov is the U.S. government's official web portal to all federal, state and local government web resources and services.